Time;durP1;ratioP1;P1;durP2;ratioP2;P2;SDS_P1;SDS_P2;PMS_P1;PMS_P2;Temp;Humidity;BMP_temperature;BMP_pressure;BME280_temperature;BME280_humidity;BME280_pressure;Samples;Min_cycle;Max_cycle;Signal;HPM_P1;HPM_P2
2023/10/30 00:02:29;;;;;;;41.28;16.08;;;;;;;;;;6245463;28;20063;-61
2023/10/30 00:05:29;;;;;;;41.67;17.48;;;;;;;;;;6241469;28;20504;-61
2023/10/30 00:08:30;;;;;;;36.22;15.57;;;;;;;;;;6244352;28;20050;-61
2023/10/30 00:11:30;;;;;;;31.95;12.75;;;;;;;;;;6258264;28;20045;-60
2023/10/30 00:14:31;;;;;;;25.42;9.93;;;;;;;;;;6260228;28;20041;-61
2023/10/30 00:17:32;;;;;;;32.08;10.60;;;;;;;;;;6243568;28;20148;-61
2023/10/30 00:20:35;;;;;;;33.63;10.32;;;;;;;;;;6248502;28;20413;-61
2023/10/30 00:23:36;;;;;;;24.73;9.20;;;;;;;;;;6242828;28;20071;-61
2023/10/30 00:26:37;;;;;;;22.05;8.63;;;;;;;;;;6242773;28;20033;-62
2023/10/30 00:29:39;;;;;;;16.55;7.95;;;;;;;;;;6242468;28;20396;-61
2023/10/30 00:32:39;;;;;;;14.57;6.47;;;;;;;;;;6242141;28;20049;-62
2023/10/30 00:35:40;;;;;;;22.23;9.35;;;;;;;;;;6242829;28;20404;-61
2023/10/30 00:38:41;;;;;;;20.48;7.80;;;;;;;;;;6245848;28;20476;-60
2023/10/30 00:41:41;;;;;;;30.50;10.15;;;;;;;;;;6240683;28;20041;-61
2023/10/30 00:44:42;;;;;;;20.50;8.55;;;;;;;;;;6242667;28;20045;-59
2023/10/30 00:47:42;;;;;;;22.35;7.55;;;;;;;;;;6243668;28;20408;-61
2023/10/30 00:50:43;;;;;;;17.75;6.43;;;;;;;;;;6240528;28;20504;-61
2023/10/30 00:53:43;;;;;;;15.75;6.45;;;;;;;;;;6239955;28;20061;-61
2023/10/30 00:56:44;;;;;;;17.10;6.50;;;;;;;;;;6244857;28;20337;-60
2023/10/30 00:59:45;;;;;;;13.07;6.22;;;;;;;;;;6242884;28;20052;-62
2023/10/30 01:02:45;;;;;;;14.05;6.40;;;;;;;;;;6241546;28;20064;-61
2023/10/30 01:05:46;;;;;;;11.75;5.57;;;;;;;;;;6242591;28;20184;-62
2023/10/30 01:08:47;;;;;;;11.75;5.55;;;;;;;;;;6242790;28;20037;-62
2023/10/30 01:11:47;;;;;;;11.07;5.75;;;;;;;;;;6241674;28;20614;-62
2023/10/30 01:14:48;;;;;;;14.60;5.88;;;;;;;;;;6241463;28;20042;-60
2023/10/30 01:17:49;;;;;;;13.15;6.63;;;;;;;;;;6243568;28;20049;-60
2023/10/30 01:20:50;;;;;;;14.02;5.78;;;;;;;;;;6239847;28;20140;-61
2023/10/30 01:23:51;;;;;;;16.00;5.18;;;;;;;;;;6240543;28;20454;-61
2023/10/30 01:26:51;;;;;;;9.68;4.63;;;;;;;;;;6242461;28;20065;-63
2023/10/30 01:29:53;;;;;;;10.52;5.30;;;;;;;;;;6242711;28;20436;-61
2023/10/30 01:32:53;;;;;;;10.65;5.10;;;;;;;;;;6241141;28;20152;-62
2023/10/30 01:35:55;;;;;;;11.18;4.97;;;;;;;;;;6241845;28;20545;-62
2023/10/30 01:38:56;;;;;;;12.35;5.80;;;;;;;;;;6242703;28;20063;-62
2023/10/30 01:41:56;;;;;;;16.40;6.38;;;;;;;;;;6245716;28;20041;-62
2023/10/30 01:44:58;;;;;;;15.90;6.38;;;;;;;;;;6243971;28;20053;-63
2023/10/30 01:47:58;;;;;;;16.40;8.60;;;;;;;;;;6245367;28;20483;-61
2023/10/30 01:51:00;;;;;;;13.32;6.90;;;;;;;;;;6245609;28;20136;-61
2023/10/30 01:54:02;;;;;;;17.48;8.07;;;;;;;;;;6245789;28;20076;-62
2023/10/30 01:57:03;;;;;;;13.07;5.75;;;;;;;;;;6246546;28;20149;-61
2023/10/30 02:00:03;;;;;;;15.00;6.15;;;;;;;;;;6246654;28;20049;-59
2023/10/30 02:03:04;;;;;;;10.07;5.80;;;;;;;;;;6245497;28;20064;-61
2023/10/30 02:06:05;;;;;;;10.95;5.25;;;;;;;;;;6245778;28;20045;-59
2023/10/30 02:09:06;;;;;;;15.45;5.80;;;;;;;;;;6245576;28;20415;-61
2023/10/30 02:12:07;;;;;;;12.10;5.88;;;;;;;;;;6244997;28;20046;-60
2023/10/30 02:15:08;;;;;;;30.73;20.50;;;;;;;;;;6244011;28;20056;-61
2023/10/30 02:18:10;;;;;;;20.13;12.10;;;;;;;;;;6243735;28;20041;-61
2023/10/30 02:21:12;;;;;;;22.05;11.82;;;;;;;;;;6246607;28;20056;-60
2023/10/30 02:24:13;;;;;;;15.67;7.23;;;;;;;;;;6244444;28;20120;-59
2023/10/30 02:27:14;;;;;;;14.23;7.32;;;;;;;;;;6246447;28;20067;-58
2023/10/30 02:30:15;;;;;;;17.35;9.15;;;;;;;;;;6245085;28;20389;-60
2023/10/30 02:33:15;;;;;;;16.85;7.63;;;;;;;;;;6243452;28;20492;-60
2023/10/30 02:36:16;;;;;;;15.75;7.28;;;;;;;;;;6245138;28;20431;-59
2023/10/30 02:39:17;;;;;;;15.98;8.25;;;;;;;;;;6245429;28;20045;-59
2023/10/30 02:42:17;;;;;;;28.70;14.35;;;;;;;;;;6244688;28;20044;-60
2023/10/30 02:45:18;;;;;;;30.45;14.68;;;;;;;;;;6244795;28;20052;-60
2023/10/30 02:48:18;;;;;;;42.28;17.83;;;;;;;;;;6245120;28;20053;-59
2023/10/30 02:51:19;;;;;;;27.88;13.15;;;;;;;;;;6245049;28;20095;-61
2023/10/30 02:54:19;;;;;;;26.23;11.88;;;;;;;;;;6241839;28;20485;-61
2023/10/30 02:57:20;;;;;;;18.98;10.07;;;;;;;;;;6245016;28;20049;-60
2023/10/30 03:00:21;;;;;;;22.13;9.38;;;;;;;;;;6245186;28;20045;-60
2023/10/30 03:03:22;;;;;;;15.55;8.45;;;;;;;;;;6256192;28;20492;-60
2023/10/30 03:06:22;;;;;;;17.52;8.88;;;;;;;;;;6243380;28;20049;-58
2023/10/30 03:09:23;;;;;;;20.38;9.32;;;;;;;;;;6244831;28;20461;-59
2023/10/30 03:12:23;;;;;;;23.35;10.50;;;;;;;;;;6244004;28;20041;-60
2023/10/30 03:15:24;;;;;;;44.17;17.85;;;;;;;;;;6244061;28;20132;-59
2023/10/30 03:18:25;;;;;;;51.45;19.85;;;;;;;;;;6243693;28;20059;-61
2023/10/30 03:21:25;;;;;;;54.38;19.70;;;;;;;;;;6244586;28;20052;-61
2023/10/30 03:24:26;;;;;;;34.45;15.13;;;;;;;;;;6243560;28;20038;-60
2023/10/30 03:27:27;;;;;;;30.58;14.25;;;;;;;;;;6243554;28;20392;-59
2023/10/30 03:30:27;;;;;;;27.15;11.75;;;;;;;;;;6244546;28;20045;-61
2023/10/30 03:33:28;;;;;;;24.08;10.82;;;;;;;;;;6242578;28;20053;-57
2023/10/30 03:36:29;;;;;;;22.65;11.70;;;;;;;;;;6244846;28;20053;-60
2023/10/30 03:39:29;;;;;;;20.80;10.95;;;;;;;;;;6243652;28;20096;-59
2023/10/30 03:42:30;;;;;;;23.00;10.20;;;;;;;;;;6241379;28;20041;-60
2023/10/30 03:45:30;;;;;;;21.70;10.85;;;;;;;;;;6243590;28;20057;-59
2023/10/30 03:48:32;;;;;;;19.65;9.45;;;;;;;;;;6243668;28;20638;-59
2023/10/30 03:51:32;;;;;;;17.03;7.43;;;;;;;;;;6243548;28;20053;-60
2023/10/30 03:54:33;;;;;;;10.43;5.25;;;;;;;;;;6242414;28;20665;-61
2023/10/30 03:57:34;;;;;;;12.30;4.70;;;;;;;;;;6243826;28;20053;-60
2023/10/30 04:00:34;;;;;;;9.93;6.05;;;;;;;;;;6242753;28;20084;-60
2023/10/30 04:03:35;;;;;;;7.78;4.45;;;;;;;;;;6241448;28;20061;-60
2023/10/30 04:06:36;;;;;;;7.60;3.90;;;;;;;;;;6243297;28;20049;-60
2023/10/30 04:09:37;;;;;;;10.32;3.97;;;;;;;;;;6243545;28;20744;-59
2023/10/30 04:12:38;;;;;;;9.70;4.15;;;;;;;;;;6242219;28;20049;-60
2023/10/30 04:15:39;;;;;;;7.90;4.00;;;;;;;;;;6244857;28;20057;-61
2023/10/30 04:18:39;;;;;;;11.65;5.30;;;;;;;;;;6243325;28;20057;-60
2023/10/30 04:21:40;;;;;;;10.00;5.28;;;;;;;;;;6242680;28;20480;-60
2023/10/30 04:24:41;;;;;;;14.48;5.15;;;;;;;;;;6258060;28;20041;-60
2023/10/30 04:27:41;;;;;;;11.27;4.78;;;;;;;;;;6243384;28;20046;-61
2023/10/30 04:30:42;;;;;;;9.95;4.70;;;;;;;;;;6242940;28;20048;-60
2023/10/30 04:33:42;;;;;;;13.77;5.05;;;;;;;;;;6238817;28;20375;-60
2023/10/30 04:36:43;;;;;;;10.43;5.00;;;;;;;;;;6240786;28;20049;-60
2023/10/30 04:39:45;;;;;;;11.07;4.93;;;;;;;;;;6243386;28;20058;-59
2023/10/30 04:42:46;;;;;;;9.15;5.07;;;;;;;;;;6241382;28;20060;-60
2023/10/30 04:45:46;;;;;;;10.80;5.03;;;;;;;;;;6242510;28;20495;-60
2023/10/30 04:48:47;;;;;;;11.35;5.88;;;;;;;;;;6242533;28;20041;-60
2023/10/30 04:51:47;;;;;;;10.82;5.75;;;;;;;;;;6242416;28;20049;-63
2023/10/30 04:54:48;;;;;;;13.00;6.13;;;;;;;;;;6240490;28;20065;-60
2023/10/30 04:57:49;;;;;;;10.00;5.35;;;;;;;;;;6242540;28;20054;-60
2023/10/30 05:00:49;;;;;;;11.18;4.78;;;;;;;;;;6245437;28;20904;-60
2023/10/30 05:03:50;;;;;;;12.00;4.85;;;;;;;;;;6247788;28;20061;-60
2023/10/30 05:06:50;;;;;;;9.85;4.40;;;;;;;;;;6244311;28;20050;-60
2023/10/30 05:09:52;;;;;;;10.95;4.70;;;;;;;;;;6257566;28;20097;-60
2023/10/30 05:12:53;;;;;;;10.75;4.75;;;;;;;;;;6248845;28;20137;-60
2023/10/30 05:15:56;;;;;;;8.20;4.75;;;;;;;;;;6245981;28;20492;-57
2023/10/30 05:18:57;;;;;;;13.68;4.90;;;;;;;;;;6247772;28;20533;-60
2023/10/30 05:21:58;;;;;;;12.23;4.53;;;;;;;;;;6246619;28;20400;-60
2023/10/30 05:24:59;;;;;;;8.95;4.35;;;;;;;;;;6249393;28;20091;-61
2023/10/30 05:28:00;;;;;;;11.33;4.83;;;;;;;;;;6246931;28;20441;-60
2023/10/30 05:31:05;;;;;;;9.73;4.57;;;;;;;;;;6246548;28;20049;-60
2023/10/30 05:34:06;;;;;;;10.05;4.63;;;;;;;;;;6245902;28;20419;-62
2023/10/30 05:37:09;;;;;;;12.65;5.20;;;;;;;;;;6246065;28;20046;-62
2023/10/30 05:40:10;;;;;;;9.50;4.82;;;;;;;;;;6244034;28;20463;-60
2023/10/30 05:43:10;;;;;;;11.38;4.50;;;;;;;;;;6242926;28;20071;-60
2023/10/30 05:46:11;;;;;;;10.88;5.28;;;;;;;;;;6243768;28;20049;-60
2023/10/30 05:49:12;;;;;;;10.95;5.70;;;;;;;;;;6248165;28;20048;-61
2023/10/30 05:52:12;;;;;;;13.73;5.80;;;;;;;;;;6244457;28;20417;-60
2023/10/30 05:55:13;;;;;;;13.00;5.18;;;;;;;;;;6244401;28;20050;-60
2023/10/30 05:58:14;;;;;;;12.07;5.32;;;;;;;;;;6246997;28;20041;-60
2023/10/30 06:01:14;;;;;;;11.50;5.70;;;;;;;;;;6254958;28;20055;-59
2023/10/30 06:04:15;;;;;;;13.18;5.90;;;;;;;;;;6255434;28;20057;-59
2023/10/30 06:07:16;;;;;;;9.75;5.70;;;;;;;;;;6246627;28;20049;-59
2023/10/30 06:10:19;;;;;;;12.93;5.80;;;;;;;;;;6251533;28;20053;-59
2023/10/30 06:13:19;;;;;;;14.45;6.53;;;;;;;;;;6263452;28;20488;-60
2023/10/30 06:16:20;;;;;;;15.07;6.10;;;;;;;;;;6267309;28;20122;-60
2023/10/30 06:19:21;;;;;;;11.52;6.35;;;;;;;;;;6266580;28;20570;-59
2023/10/30 06:22:21;;;;;;;13.07;6.18;;;;;;;;;;6265120;28;20041;-61
2023/10/30 06:25:22;;;;;;;15.52;7.82;;;;;;;;;;6265681;28;20049;-61
2023/10/30 06:28:23;;;;;;;15.55;6.60;;;;;;;;;;6268355;28;20415;-60
2023/10/30 06:31:23;;;;;;;16.90;7.70;;;;;;;;;;6249001;28;20036;-60
2023/10/30 06:34:24;;;;;;;14.38;5.65;;;;;;;;;;6251746;28;20044;-59
2023/10/30 06:37:25;;;;;;;14.57;6.32;;;;;;;;;;6253764;28;20080;-59
2023/10/30 06:40:25;;;;;;;22.05;9.38;;;;;;;;;;6254220;28;20049;-60
2023/10/30 06:43:26;;;;;;;13.95;7.05;;;;;;;;;;6252888;28;20428;-60
2023/10/30 06:46:26;;;;;;;15.13;6.10;;;;;;;;;;6256605;28;20138;-60
2023/10/30 06:49:27;;;;;;;14.43;5.90;;;;;;;;;;6256420;28;20064;-60
2023/10/30 06:52:28;;;;;;;12.63;5.20;;;;;;;;;;6252051;28;20492;-59
2023/10/30 06:55:28;;;;;;;13.48;5.60;;;;;;;;;;6254941;28;20048;-61
2023/10/30 06:58:29;;;;;;;17.55;9.20;;;;;;;;;;6257398;28;20127;-59
2023/10/30 07:01:45;;;;;;;15.15;7.85;;;;;;;;;;6261811;28;20036;-61
2023/10/30 07:04:45;;;;;;;16.40;9.18;;;;;;;;;;6262449;28;20059;-60
2023/10/30 07:07:46;;;;;;;13.55;7.00;;;;;;;;;;6266672;28;20975;-60
2023/10/30 07:10:47;;;;;;;15.18;7.40;;;;;;;;;;6265878;28;20128;-60
2023/10/30 07:13:47;;;;;;;16.15;7.03;;;;;;;;;;6264740;28;20506;-60
2023/10/30 07:16:48;;;;;;;16.08;7.53;;;;;;;;;;6266186;28;20045;-61
2023/10/30 07:19:48;;;;;;;17.65;6.90;;;;;;;;;;6264192;28;20158;-60
2023/10/30 07:22:49;;;;;;;13.15;6.97;;;;;;;;;;6263070;28;20049;-62
2023/10/30 07:25:49;;;;;;;11.55;5.45;;;;;;;;;;6264077;28;20063;-61
2023/10/30 07:28:51;;;;;;;14.25;5.57;;;;;;;;;;6264383;28;20484;-60
2023/10/30 07:31:52;;;;;;;16.40;6.15;;;;;;;;;;6264741;28;20057;-60
2023/10/30 07:34:53;;;;;;;13.75;6.93;;;;;;;;;;6262427;28;20469;-60
2023/10/30 07:37:53;;;;;;;16.90;6.53;;;;;;;;;;6265305;28;20045;-62
2023/10/30 07:40:54;;;;;;;22.50;12.68;;;;;;;;;;6265521;28;20083;-61
2023/10/30 07:43:55;;;;;;;20.73;10.00;;;;;;;;;;6264518;28;20055;-60
2023/10/30 07:46:56;;;;;;;16.70;6.30;;;;;;;;;;6265021;28;20403;-60
2023/10/30 07:49:59;;;;;;;15.13;5.17;;;;;;;;;;6265949;28;20044;-61
2023/10/30 07:53:00;;;;;;;13.73;5.95;;;;;;;;;;6264026;28;20045;-60
2023/10/30 07:56:01;;;;;;;14.95;5.72;;;;;;;;;;6264806;28;20118;-61
2023/10/30 07:59:05;;;;;;;14.48;6.10;;;;;;;;;;6266060;28;20045;-61
2023/10/30 08:02:06;;;;;;;13.00;5.10;;;;;;;;;;6265312;28;20045;-61
2023/10/30 08:05:07;;;;;;;14.57;5.32;;;;;;;;;;6264302;28;20514;-60
2023/10/30 08:08:08;;;;;;;14.57;5.28;;;;;;;;;;6265133;28;20045;-60
2023/10/30 08:11:09;;;;;;;15.65;5.15;;;;;;;;;;6264739;28;20122;-60
2023/10/30 08:14:10;;;;;;;16.35;5.50;;;;;;;;;;6263722;28;20071;-61
2023/10/30 08:17:11;;;;;;;14.73;4.88;;;;;;;;;;6264540;28;20059;-61
2023/10/30 08:20:11;;;;;;;12.50;4.60;;;;;;;;;;6264791;28;20045;-61
2023/10/30 08:23:12;;;;;;;13.03;4.93;;;;;;;;;;6262937;28;20515;-61
2023/10/30 08:26:13;;;;;;;9.98;4.82;;;;;;;;;;6264494;28;20124;-59
2023/10/30 08:29:14;;;;;;;15.65;5.65;;;;;;;;;;6265076;28;20072;-61
2023/10/30 08:32:14;;;;;;;14.07;4.97;;;;;;;;;;6264924;28;20052;-61
2023/10/30 08:35:15;;;;;;;16.85;5.03;;;;;;;;;;6263546;28;20084;-60
2023/10/30 08:38:15;;;;;;;11.63;4.80;;;;;;;;;;6265404;28;20045;-61
2023/10/30 08:41:17;;;;;;;9.88;4.35;;;;;;;;;;6264798;28;20045;-60
2023/10/30 08:44:18;;;;;;;15.05;5.88;;;;;;;;;;6263465;28;20072;-60
2023/10/30 08:47:19;;;;;;;12.30;4.57;;;;;;;;;;6262375;28;20045;-60
2023/10/30 08:50:19;;;;;;;15.00;4.88;;;;;;;;;;6270177;28;20102;-60
2023/10/30 08:53:20;;;;;;;11.73;5.07;;;;;;;;;;6268224;28;20057;-60
2023/10/30 08:56:21;;;;;;;13.27;5.85;;;;;;;;;;6269180;28;20045;-60
2023/10/30 08:59:21;;;;;;;13.25;4.55;;;;;;;;;;6269427;28;20045;-60
2023/10/30 09:02:22;;;;;;;12.80;4.55;;;;;;;;;;6269001;28;20053;-61
2023/10/30 09:05:22;;;;;;;12.52;4.47;;;;;;;;;;6268206;28;20049;-61
2023/10/30 09:08:23;;;;;;;14.13;4.43;;;;;;;;;;6269088;28;20045;-60
2023/10/30 09:11:24;;;;;;;11.50;4.03;;;;;;;;;;6270384;28;20579;-61
2023/10/30 09:14:24;;;;;;;11.38;4.30;;;;;;;;;;6268619;28;20049;-60
2023/10/30 09:17:25;;;;;;;14.20;4.55;;;;;;;;;;6268746;28;20503;-61
2023/10/30 09:20:26;;;;;;;10.07;4.20;;;;;;;;;;6268957;28;20404;-61
2023/10/30 09:23:26;;;;;;;10.35;4.32;;;;;;;;;;6265134;28;20045;-60
2023/10/30 09:26:27;;;;;;;10.75;4.70;;;;;;;;;;6267809;28;20485;-60
2023/10/30 09:29:28;;;;;;;14.67;4.63;;;;;;;;;;6268824;28;20049;-60
2023/10/30 09:32:28;;;;;;;16.65;6.10;;;;;;;;;;6268868;28;20489;-60
2023/10/30 09:35:31;;;;;;;10.20;4.57;;;;;;;;;;6268566;28;20403;-61
2023/10/30 09:38:32;;;;;;;11.07;4.40;;;;;;;;;;6268729;28;20125;-61
2023/10/30 09:41:39;;;;;;;12.25;4.55;;;;;;;;;;6267875;28;20131;-60
2023/10/30 09:44:40;;;;;;;9.68;4.00;;;;;;;;;;6269232;28;20045;-61
2023/10/30 09:47:42;;;;;;;10.32;4.70;;;;;;;;;;6268277;28;20144;-61
2023/10/30 09:50:44;;;;;;;11.80;4.63;;;;;;;;;;6267485;28;20869;-61
2023/10/30 09:53:46;;;;;;;;;;;;;;;;;;6267237;28;20049;-61
2023/10/30 09:56:48;;;;;;;12.80;4.10;;;;;;;;;;6269751;28;19974;-61
2023/10/30 09:59:53;;;;;;;13.52;4.40;;;;;;;;;;6266670;28;20492;-61
2023/10/30 10:02:54;;;;;;;13.32;4.10;;;;;;;;;;6268855;28;20052;-61
2023/10/30 10:05:56;;;;;;;10.18;3.80;;;;;;;;;;6265897;28;20495;-61
2023/10/30 10:08:57;;;;;;;12.10;5.25;;;;;;;;;;6267136;28;20057;-61
2023/10/30 10:11:58;;;;;;;11.40;4.15;;;;;;;;;;6267611;28;20041;-61
2023/10/30 10:14:59;;;;;;;14.57;4.30;;;;;;;;;;6266557;28;20048;-61
2023/10/30 10:18:00;;;;;;;11.82;4.90;;;;;;;;;;6267983;28;20049;-61
2023/10/30 10:21:03;;;;;;;10.82;4.40;;;;;;;;;;6267502;28;20098;-61
2023/10/30 10:24:04;;;;;;;12.85;4.90;;;;;;;;;;6266218;28;20487;-61
2023/10/30 10:27:06;;;;;;;9.27;4.05;;;;;;;;;;6266196;28;20060;-61
2023/10/30 10:30:07;;;;;;;12.88;4.63;;;;;;;;;;6267927;28;20049;-61
2023/10/30 10:33:08;;;;;;;12.57;4.57;;;;;;;;;;6265215;28;20091;-61
2023/10/30 10:36:10;;;;;;;9.90;4.13;;;;;;;;;;6265482;28;20570;-60
2023/10/30 10:39:11;;;;;;;15.27;4.72;;;;;;;;;;6267837;28;20047;-61
2023/10/30 10:42:12;;;;;;;15.82;5.07;;;;;;;;;;6267092;28;20492;-60
2023/10/30 10:45:14;;;;;;;13.40;4.80;;;;;;;;;;6265254;28;20044;-61
2023/10/30 10:48:16;;;;;;;13.13;4.70;;;;;;;;;;6267460;28;20166;-61
2023/10/30 10:51:29;;;;;;;11.77;4.60;;;;;;;;;;6266789;28;20435;-61
2023/10/30 10:54:35;;;;;;;11.45;4.45;;;;;;;;;;6265853;28;20056;-61
2023/10/30 10:57:50;;;;;;;14.43;5.25;;;;;;;;;;6266295;28;20049;-60
2023/10/30 11:00:52;;;;;;;11.77;4.97;;;;;;;;;;6263848;28;20124;-61
2023/10/30 11:03:53;;;;;;;10.77;4.70;;;;;;;;;;6265493;28;20122;-60
2023/10/30 11:06:59;;;;;;;15.60;5.55;;;;;;;;;;6265611;28;20059;-61
2023/10/30 11:10:09;;;;;;;15.48;4.43;;;;;;;;;;6264346;28;20056;-60
2023/10/30 11:13:42;;;;;;;12.02;5.93;;;;;;;;;;6264870;28;20036;-61
2023/10/30 11:17:03;;;;;;;11.93;4.75;;;;;;;;;;6258901;28;20056;-61
2023/10/30 11:20:07;;;;;;;14.65;5.25;;;;;;;;;;6262153;28;20075;-59
2023/10/30 11:23:09;;;;;;;13.80;4.28;;;;;;;;;;6264679;28;20044;-61
2023/10/30 11:26:30;;;;;;;11.95;4.75;;;;;;;;;;6267520;28;20055;-61
2023/10/30 11:30:16;;;;;;;14.48;5.93;;;;;;;;;;6258121;28;20055;-61
2023/10/30 11:33:26;;;;;;;10.48;4.45;;;;;;;;;;6253919;28;20059;-61
2023/10/30 11:36:34;;;;;;;12.57;4.40;;;;;;;;;;6264932;28;20044;-60
2023/10/30 11:39:39;;;;;;;9.70;3.90;;;;;;;;;;6266449;28;20045;-60
2023/10/30 11:42:43;;;;;;;12.90;4.10;;;;;;;;;;6265454;28;20094;-60
2023/10/30 11:45:45;;;;;;;11.63;4.57;;;;;;;;;;6266488;28;20037;-61
2023/10/30 11:48:45;;;;;;;12.68;5.15;;;;;;;;;;6264720;28;20492;-61
2023/10/30 11:51:49;;;;;;;11.93;4.50;;;;;;;;;;6265081;28;20064;-60
2023/10/30 11:54:49;;;;;;;13.43;6.97;;;;;;;;;;6261920;28;20053;-60
2023/10/30 11:57:51;;;;;;;9.18;4.22;;;;;;;;;;6264295;28;20140;-60
2023/10/30 12:00:51;;;;;;;12.77;3.83;;;;;;;;;;6263795;28;20052;-61
2023/10/30 12:03:53;;;;;;;8.50;4.00;;;;;;;;;;6263811;28;20337;-61
2023/10/30 12:06:54;;;;;;;8.93;4.10;;;;;;;;;;6263598;28;20048;-60
2023/10/30 12:09:55;;;;;;;9.77;4.18;;;;;;;;;;6264544;28;20055;-60
2023/10/30 12:12:55;;;;;;;10.13;4.17;;;;;;;;;;6264190;28;20049;-60
2023/10/30 12:15:57;;;;;;;9.17;4.40;;;;;;;;;;6264136;28;20132;-61
2023/10/30 12:18:57;;;;;;;12.98;4.80;;;;;;;;;;6264644;28;20772;-61
2023/10/30 12:21:59;;;;;;;10.30;4.23;;;;;;;;;;6265269;28;20059;-60
2023/10/30 12:24:59;;;;;;;10.50;3.90;;;;;;;;;;6262945;28;20044;-60
2023/10/30 12:28:05;;;;;;;10.67;5.40;;;;;;;;;;6264544;28;20045;-61
2023/10/30 12:31:19;;;;;;;9.13;4.00;;;;;;;;;;6265287;28;20202;-61
2023/10/30 12:34:23;;;;;;;9.20;4.63;;;;;;;;;;6261628;28;20045;-61
2023/10/30 12:37:24;;;;;;;13.75;4.85;;;;;;;;;;6261937;28;20510;-61
2023/10/30 12:40:25;;;;;;;13.50;4.53;;;;;;;;;;6264065;28;20136;-60
2023/10/30 12:43:25;;;;;;;9.17;4.67;;;;;;;;;;6263189;28;20048;-60
2023/10/30 12:46:26;;;;;;;13.23;5.00;;;;;;;;;;6262716;28;20060;-61
2023/10/30 12:49:26;;;;;;;10.03;4.57;;;;;;;;;;6264309;28;20092;-60
2023/10/30 12:52:27;;;;;;;12.33;4.70;;;;;;;;;;6261267;28;20041;-61
2023/10/30 12:55:28;;;;;;;10.13;4.10;;;;;;;;;;6264934;28;20061;-61
2023/10/30 12:58:28;;;;;;;11.33;4.20;;;;;;;;;;6263289;28;20049;-60
2023/10/30 13:01:29;;;;;;;14.60;6.97;;;;;;;;;;6264815;28;20091;-61
2023/10/30 13:04:29;;;;;;;9.47;4.60;;;;;;;;;;6263808;28;20154;-61
2023/10/30 13:07:30;;;;;;;10.63;4.30;;;;;;;;;;6261642;28;20337;-61
2023/10/30 13:10:31;;;;;;;11.10;4.40;;;;;;;;;;6263345;28;20045;-60
2023/10/30 13:13:31;;;;;;;13.53;4.97;;;;;;;;;;6264121;28;20351;-61
2023/10/30 13:16:32;;;;;;;10.00;4.60;;;;;;;;;;6263175;28;20053;-60
2023/10/30 13:19:33;;;;;;;13.27;5.00;;;;;;;;;;6265702;28;20056;-60
2023/10/30 13:22:34;;;;;;;13.03;4.77;;;;;;;;;;6262461;28;20484;-60
2023/10/30 13:25:35;;;;;;;11.60;4.83;;;;;;;;;;6263329;28;20041;-60
2023/10/30 13:28:35;;;;;;;14.43;4.97;;;;;;;;;;6262908;28;20057;-60
2023/10/30 13:31:36;;;;;;;12.95;5.35;;;;;;;;;;6261544;28;20048;-59
2023/10/30 13:34:36;;;;;;;11.93;5.30;;;;;;;;;;6263266;28;20141;-61
2023/10/30 13:37:37;;;;;;;15.17;5.23;;;;;;;;;;6267916;28;20450;-61
2023/10/30 13:40:37;;;;;;;12.97;5.10;;;;;;;;;;6268109;28;20049;-61
2023/10/30 13:43:38;;;;;;;12.77;4.87;;;;;;;;;;6266745;28;20049;-60
2023/10/30 13:46:39;;;;;;;11.17;4.63;;;;;;;;;;6267027;28;20045;-61
2023/10/30 13:49:39;;;;;;;14.00;5.03;;;;;;;;;;6260296;28;20056;-60
2023/10/30 13:52:40;;;;;;;17.53;5.77;;;;;;;;;;6254112;28;20095;-61
2023/10/30 13:55:40;;;;;;;14.50;5.10;;;;;;;;;;6252980;28;20074;-61
2023/10/30 13:58:41;;;;;;;13.53;5.30;;;;;;;;;;6254964;28;20519;-61
2023/10/30 14:01:41;;;;;;;12.53;5.60;;;;;;;;;;6255241;28;20055;-61
2023/10/30 14:04:43;;;;;;;15.25;7.10;;;;;;;;;;6253992;28;20064;-59
2023/10/30 14:07:44;;;;;;;15.65;6.55;;;;;;;;;;6254242;28;20499;-61
2023/10/30 14:10:44;;;;;;;12.57;5.93;;;;;;;;;;6256516;28;20073;-60
2023/10/30 14:13:45;;;;;;;12.30;5.50;;;;;;;;;;6256406;28;20749;-61
2023/10/30 14:16:46;;;;;;;10.37;5.13;;;;;;;;;;6255837;28;20064;-59
2023/10/30 14:19:46;;;;;;;17.33;6.57;;;;;;;;;;6257283;28;20044;-61
2023/10/30 14:22:47;;;;;;;15.83;5.83;;;;;;;;;;6253896;28;20119;-61
2023/10/30 14:25:48;;;;;;;15.03;5.23;;;;;;;;;;6255031;28;20052;-61
2023/10/30 14:28:49;;;;;;;14.20;5.80;;;;;;;;;;6252740;28;20118;-61
2023/10/30 14:31:49;;;;;;;11.77;5.47;;;;;;;;;;6255027;28;20049;-61
2023/10/30 14:34:50;;;;;;;13.97;5.57;;;;;;;;;;6255585;28;20077;-60
2023/10/30 14:37:50;;;;;;;13.53;5.80;;;;;;;;;;6255896;28;20389;-61
2023/10/30 14:40:51;;;;;;;16.27;6.37;;;;;;;;;;6253867;28;20108;-60
2023/10/30 14:43:52;;;;;;;15.20;6.47;;;;;;;;;;6251839;28;20045;-61
2023/10/30 14:46:52;;;;;;;16.37;7.00;;;;;;;;;;6255802;28;20056;-61
2023/10/30 14:49:55;;;;;;;18.97;8.97;;;;;;;;;;6257626;28;20047;-61
2023/10/30 14:52:56;;;;;;;29.30;13.98;;;;;;;;;;6254053;28;20415;-61
2023/10/30 14:55:56;;;;;;;32.78;16.13;;;;;;;;;;6254633;28;20057;-60
2023/10/30 14:58:57;;;;;;;40.17;15.20;;;;;;;;;;6256240;28;20581;-58
2023/10/30 15:01:57;;;;;;;41.97;16.60;;;;;;;;;;6252407;28;20396;-60
2023/10/30 15:05:00;;;;;;;27.45;12.02;;;;;;;;;;6255686;28;20049;-61
2023/10/30 15:08:00;;;;;;;68.05;20.63;;;;;;;;;;6255852;28;20587;-60
2023/10/30 15:11:01;;;;;;;55.33;16.00;;;;;;;;;;6255839;28;20077;-59
2023/10/30 15:14:02;;;;;;;88.22;22.73;;;;;;;;;;6254442;28;20111;-59
2023/10/30 15:17:03;;;;;;;75.88;20.40;;;;;;;;;;6252437;28;20048;-61
2023/10/30 15:20:04;;;;;;;48.03;15.82;;;;;;;;;;6254565;28;20041;-60
2023/10/30 15:23:06;;;;;;;45.83;16.70;;;;;;;;;;6252061;28;20582;-59
2023/10/30 15:26:07;;;;;;;43.20;16.05;;;;;;;;;;6252024;28;20507;-60
2023/10/30 15:29:07;;;;;;;40.35;15.77;;;;;;;;;;6255352;28;20529;-60
2023/10/30 15:32:08;;;;;;;52.53;22.92;;;;;;;;;;6253213;28;20086;-60
2023/10/30 15:35:09;;;;;;;53.40;24.90;;;;;;;;;;6251303;28;20072;-61
2023/10/30 15:38:09;;;;;;;55.92;22.48;;;;;;;;;;6253697;28;20446;-60
2023/10/30 15:41:10;;;;;;;64.82;24.35;;;;;;;;;;6253693;28;20049;-62
2023/10/30 15:44:10;;;;;;;193.30;50.50;;;;;;;;;;6256852;28;20797;-62
2023/10/30 15:47:11;;;;;;;84.47;24.23;;;;;;;;;;6254424;28;20187;-61
2023/10/30 15:50:11;;;;;;;95.95;27.42;;;;;;;;;;6253609;28;20042;-61
2023/10/30 15:53:12;;;;;;;74.10;25.48;;;;;;;;;;6256584;28;20045;-60
2023/10/30 15:56:12;;;;;;;78.45;25.75;;;;;;;;;;6254934;28;20464;-60
2023/10/30 15:59:13;;;;;;;66.10;20.52;;;;;;;;;;6256458;28;20155;-61
2023/10/30 16:02:14;;;;;;;68.57;21.55;;;;;;;;;;6255367;28;20500;-60
2023/10/30 16:05:15;;;;;;;44.57;17.37;;;;;;;;;;6256811;28;20055;-61
2023/10/30 16:08:16;;;;;;;55.25;25.27;;;;;;;;;;6257059;28;20049;-61
2023/10/30 16:11:16;;;;;;;47.58;19.30;;;;;;;;;;6252733;28;20110;-61
2023/10/30 16:14:17;;;;;;;57.67;18.92;;;;;;;;;;6256820;28;20091;-61
2023/10/30 16:17:17;;;;;;;51.95;19.30;;;;;;;;;;6253776;28;20500;-60
2023/10/30 16:20:18;;;;;;;43.50;19.75;;;;;;;;;;6254189;28;20045;-61
2023/10/30 16:23:19;;;;;;;52.40;18.02;;;;;;;;;;6256383;28;20045;-60
2023/10/30 16:26:19;;;;;;;51.70;19.98;;;;;;;;;;6252704;28;20143;-60
2023/10/30 16:29:20;;;;;;;43.22;17.33;;;;;;;;;;6256727;28;20037;-61
2023/10/30 16:32:21;;;;;;;42.83;16.23;;;;;;;;;;6254003;28;20052;-61
2023/10/30 16:35:22;;;;;;;46.33;20.27;;;;;;;;;;6256060;28;20049;-61
2023/10/30 16:38:22;;;;;;;50.60;21.38;;;;;;;;;;6256277;28;20067;-60
2023/10/30 16:41:23;;;;;;;67.65;36.47;;;;;;;;;;6253965;28;20847;-60
2023/10/30 16:44:24;;;;;;;60.20;23.35;;;;;;;;;;6256205;28;20064;-60
2023/10/30 16:47:24;;;;;;;56.08;20.23;;;;;;;;;;6253709;28;20061;-60
2023/10/30 16:50:25;;;;;;;42.97;18.13;;;;;;;;;;6254723;28;20525;-60
2023/10/30 16:53:26;;;;;;;43.80;18.23;;;;;;;;;;6255637;28;20064;-60
2023/10/30 16:56:26;;;;;;;49.08;21.40;;;;;;;;;;6254368;28;20082;-60
2023/10/30 16:59:27;;;;;;;57.55;23.15;;;;;;;;;;6255372;28;20160;-60
2023/10/30 17:02:27;;;;;;;63.00;31.20;;;;;;;;;;6253496;28;20049;-60
2023/10/30 17:05:28;;;;;;;62.63;23.95;;;;;;;;;;6254183;28;20053;-60
2023/10/30 17:08:29;;;;;;;44.30;20.73;;;;;;;;;;6255631;28;20057;-61
2023/10/30 17:11:29;;;;;;;52.45;21.83;;;;;;;;;;6257437;28;20523;-61
2023/10/30 17:14:30;;;;;;;61.22;22.25;;;;;;;;;;6259561;28;20053;-60
2023/10/30 17:17:30;;;;;;;46.28;19.70;;;;;;;;;;6259665;28;20057;-59
2023/10/30 17:20:31;;;;;;;46.13;19.08;;;;;;;;;;6258727;28;20053;-60
2023/10/30 17:23:32;;;;;;;43.72;19.23;;;;;;;;;;6256787;28;20057;-59
2023/10/30 17:26:33;;;;;;;46.50;18.40;;;;;;;;;;6254635;28;20053;-60
2023/10/30 17:29:33;;;;;;;46.85;21.00;;;;;;;;;;6260322;28;20055;-59
2023/10/30 17:32:34;;;;;;;59.35;24.10;;;;;;;;;;6259068;28;20045;-61
2023/10/30 17:35:35;;;;;;;58.15;23.35;;;;;;;;;;6257735;28;20920;-61
2023/10/30 17:38:36;;;;;;;61.08;26.10;;;;;;;;;;6258643;28;20102;-61
2023/10/30 17:41:37;;;;;;;46.45;19.52;;;;;;;;;;6257075;28;20053;-61
2023/10/30 17:44:37;;;;;;;49.70;19.70;;;;;;;;;;6258910;28;20048;-60
2023/10/30 17:47:38;;;;;;;46.58;19.52;;;;;;;;;;6258709;28;20091;-60
2023/10/30 17:50:38;;;;;;;57.00;25.13;;;;;;;;;;6257303;28;20418;-60